Ada, Ohio
Current Conditions -  °F | °C
As of 6:53 AM on Sunday 25 Jan 2015 (Local Time) from KAOH Reporting Station
Haze Haze  
Wind Chill: 35°   Ceiling: 2200
Heat Index: 35°   Visibility: 6mi
Dew Point: 30°   Wind: 0mph
Humidity: 82%   Direction: NA
Pressure: 29.71"   Gusts: NA
Location:  40.78°N, 83.82°W
Report Text: KAOH 251153Z AUTO 00000KT 6SM HZ OVC022 02/M01 A2971 RMK AO2 SLP069 T00171011 10028 20017 53004
Loading
Personal Weather Stations






























Interactive Weather Map New forecast layout! Learn more

10-Day Weather Forecast

Advertisements
Track Severe Weather on mobile